createdAt,value
2023-08-13T00:00:53.183Z,3.13
2023-08-13T00:05:56.246Z,5.22
2023-08-13T00:10:59.257Z,6.93
2023-08-13T00:16:02.670Z,4.80
2023-08-13T00:21:05.736Z,4.38
2023-08-13T00:26:08.795Z,7.05
2023-08-13T00:31:12.089Z,11.70
2023-08-13T00:36:15.469Z,4.97
2023-08-13T00:41:19.263Z,5.32
2023-08-13T00:46:23.371Z,6.00
2023-08-13T00:51:28.336Z,4.57
2023-08-13T00:56:31.482Z,6.63
2023-08-13T01:01:35.349Z,5.28
2023-08-13T01:07:08.217Z,5.78
2023-08-13T01:12:39.727Z,7.35
2023-08-13T01:17:45.377Z,9.60
2023-08-13T01:22:49.842Z,9.60
2023-08-13T01:28:05.082Z,6.75
2023-08-13T01:33:16.153Z,7.32
2023-08-13T01:38:20.037Z,5.95
2023-08-13T01:43:23.132Z,5.85
2023-08-13T01:48:27.798Z,10.05
2023-08-13T01:53:30.975Z,4.97
2023-08-13T01:58:34.648Z,14.57
2023-08-13T02:03:37.635Z,5.43
2023-08-13T02:08:40.634Z,9.85
2023-08-13T02:13:45.031Z,4.90
2023-08-13T02:18:48.213Z,4.90
2023-08-13T02:23:53.191Z,6.90
2023-08-13T02:28:56.503Z,7.75
2023-08-13T02:33:59.577Z,6.88
2023-08-13T02:39:02.671Z,7.80
2023-08-13T02:44:06.112Z,5.40
2023-08-13T02:49:10.220Z,6.03
2023-08-13T02:54:13.371Z,8.25
2023-08-13T02:59:16.409Z,10.10
2023-08-13T03:04:19.648Z,10.90
2023-08-13T03:09:24.276Z,11.73
2023-08-13T03:14:27.313Z,17.13
2023-08-13T03:19:30.775Z,16.70
2023-08-13T03:24:35.110Z,7.75
2023-08-13T03:29:38.868Z,9.60
2023-08-13T03:34:44.084Z,10.50
2023-08-13T03:39:47.170Z,12.02
2023-08-13T03:44:50.296Z,8.35
2023-08-13T03:49:53.580Z,8.85
2023-08-13T03:54:56.629Z,7.00
2023-08-13T04:00:00.774Z,6.90
2023-08-13T04:05:08.369Z,9.40
2023-08-13T04:10:11.726Z,7.30
2023-08-13T04:15:14.913Z,10.73
2023-08-13T04:20:20.204Z,10.15
2023-08-13T04:25:23.651Z,8.77
2023-08-13T04:30:27.074Z,8.15
2023-08-13T04:35:30.212Z,6.32
2023-08-13T04:40:33.590Z,8.95
2023-08-13T04:45:36.819Z,4.00
2023-08-13T04:50:39.931Z,6.90
2023-08-13T04:55:43.135Z,4.32
2023-08-13T05:00:46.926Z,7.05
2023-08-13T05:05:50.374Z,6.05
2023-08-13T05:10:53.732Z,7.10
2023-08-13T05:15:57.114Z,8.10
2023-08-13T05:21:00.440Z,5.93
2023-08-13T05:26:03.712Z,6.25
2023-08-13T05:31:08.727Z,6.85
2023-08-13T05:36:11.984Z,7.53
2023-08-13T05:41:15.154Z,6.55
2023-08-13T05:46:18.360Z,5.30
2023-08-13T05:51:22.181Z,6.38
2023-08-13T05:56:25.255Z,4.78
2023-08-13T06:01:30.121Z,8.88
2023-08-13T06:06:34.411Z,15.52
2023-08-13T06:11:37.426Z,11.35
2023-08-13T06:16:40.617Z,14.00
2023-08-13T06:21:43.709Z,15.00
2023-08-13T06:26:47.064Z,10.00
2023-08-13T06:31:50.557Z,10.57
2023-08-13T06:36:55.268Z,5.70
2023-08-13T06:41:59.021Z,10.90
2023-08-13T06:47:06.253Z,12.77
2023-08-13T06:52:09.370Z,11.05
2023-08-13T06:57:12.418Z,13.63
2023-08-13T07:02:15.665Z,6.15
2023-08-13T07:07:18.855Z,8.43
2023-08-13T07:12:21.900Z,10.70
2023-08-13T07:17:25.058Z,10.43
2023-08-13T07:22:29.283Z,15.10
2023-08-13T07:27:32.992Z,9.90
2023-08-13T07:32:40.036Z,14.57
2023-08-13T07:37:43.401Z,11.52
2023-08-13T07:42:46.568Z,8.00
2023-08-13T07:47:49.655Z,7.75
2023-08-13T07:52:52.780Z,7.82
2023-08-13T07:57:55.902Z,9.48
2023-08-13T08:02:59.640Z,26.85
2023-08-13T08:08:03.058Z,20.95
2023-08-13T08:13:06.291Z,18.60
2023-08-13T08:18:09.491Z,25.75
2023-08-13T08:23:15.304Z,21.85
2023-08-13T08:28:18.421Z,22.42
2023-08-13T08:33:22.891Z,27.05
2023-08-13T08:38:26.081Z,18.95
2023-08-13T08:43:35.752Z,21.77
2023-08-13T08:48:40.866Z,22.75
2023-08-13T08:53:45.545Z,24.27
2023-08-13T08:58:48.774Z,36.30
2023-08-13T09:03:51.901Z,28.27
2023-08-13T09:08:55.024Z,24.67
2023-08-13T09:13:59.698Z,22.27
2023-08-13T09:19:13.122Z,24.75
2023-08-13T09:24:17.649Z,26.65
2023-08-13T09:29:21.513Z,24.33
2023-08-13T09:34:27.208Z,24.10
2023-08-13T09:39:37.856Z,29.30
2023-08-13T09:44:41.197Z,23.38
2023-08-13T09:49:45.901Z,28.27
2023-08-13T09:59:55.317Z,27.23
2023-08-13T10:05:00.804Z,34.63
2023-08-13T10:10:07.880Z,28.17
2023-08-13T10:15:12.847Z,38.05
2023-08-13T10:20:19.752Z,45.90
2023-08-13T10:25:36.129Z,32.15
2023-08-13T10:30:39.234Z,43.05
2023-08-13T10:35:43.630Z,35.17
2023-08-13T10:41:00.960Z,44.72
2023-08-13T10:46:08.081Z,41.55
2023-08-13T10:51:11.375Z,43.47
2023-08-13T10:56:19.186Z,46.92
2023-08-13T11:01:22.433Z,42.05
2023-08-13T11:06:29.553Z,43.45
2023-08-13T11:11:33.565Z,40.13
2023-08-13T11:16:37.378Z,35.03
2023-08-13T11:21:40.564Z,23.17
2023-08-13T11:26:43.784Z,17.70
2023-08-13T11:31:47.659Z,13.93
2023-08-13T11:36:52.067Z,9.25
2023-08-13T11:41:55.178Z,16.95
2023-08-13T11:47:02.062Z,11.30
2023-08-13T11:52:07.593Z,8.88
2023-08-13T11:57:11.352Z,14.63
2023-08-13T12:02:16.781Z,14.73
2023-08-13T12:07:20.285Z,15.40
2023-08-13T12:12:23.299Z,9.20
2023-08-13T12:17:26.303Z,11.25
2023-08-13T12:22:31.916Z,11.32
2023-08-13T12:27:36.223Z,10.10
2023-08-13T12:32:39.464Z,11.68
2023-08-13T12:37:42.643Z,8.90
2023-08-13T12:42:46.384Z,8.95
2023-08-13T12:47:49.474Z,6.88
2023-08-13T12:52:52.611Z,7.45
2023-08-13T12:57:55.742Z,16.67
2023-08-13T13:02:58.835Z,12.07
2023-08-13T13:08:01.935Z,10.65
2023-08-13T13:13:06.420Z,14.30
2023-08-13T13:18:09.829Z,12.77
2023-08-13T13:23:12.970Z,10.88
2023-08-13T13:28:16.169Z,12.45
2023-08-13T13:33:19.272Z,10.13
2023-08-13T13:38:22.416Z,9.23
2023-08-13T13:43:27.561Z,11.50
2023-08-13T13:48:30.619Z,11.70
2023-08-13T13:53:36.066Z,10.88
2023-08-13T13:58:39.141Z,9.98
2023-08-13T14:03:42.309Z,7.55
2023-08-13T14:08:45.610Z,10.68
2023-08-13T14:13:48.814Z,7.35
2023-08-13T14:18:52.090Z,8.63
2023-08-13T14:23:55.141Z,8.50
2023-08-13T14:29:00.760Z,6.32
2023-08-13T14:34:04.234Z,8.43
2023-08-13T14:39:07.291Z,7.05
2023-08-13T14:44:10.439Z,7.40
2023-08-13T14:49:13.768Z,7.32
2023-08-13T14:54:16.986Z,11.98
2023-08-13T14:59:20.710Z,8.48
2023-08-13T15:04:23.765Z,11.15
2023-08-13T15:09:27.037Z,6.20
2023-08-13T15:14:30.785Z,10.52
2023-08-13T15:19:33.859Z,8.00
2023-08-13T15:24:36.921Z,11.85
2023-08-13T15:29:40.005Z,20.15
2023-08-13T15:34:43.735Z,51.50
2023-08-13T15:39:46.801Z,63.97
2023-08-13T15:44:49.841Z,83.78
2023-08-13T15:49:55.999Z,90.65
2023-08-13T15:54:59.046Z,68.53
2023-08-13T16:00:02.242Z,30.30
2023-08-13T16:05:16.322Z,34.38
2023-08-13T16:10:20.690Z,30.98
2023-08-13T16:15:23.795Z,38.85
2023-08-13T16:20:26.971Z,29.65
2023-08-13T16:25:30.153Z,30.27
2023-08-13T16:30:33.385Z,33.78
2023-08-13T16:35:36.571Z,27.65
2023-08-13T16:40:39.694Z,22.08
2023-08-13T16:45:42.822Z,15.32
2023-08-13T16:50:45.989Z,19.17
2023-08-13T16:55:49.154Z,25.38
2023-08-13T17:00:52.494Z,20.90
2023-08-13T17:05:55.694Z,17.38
2023-08-13T17:10:58.803Z,25.67
2023-08-13T17:16:03.266Z,16.98
2023-08-13T17:21:06.642Z,26.80
2023-08-13T17:26:09.782Z,32.00
2023-08-13T17:31:12.933Z,48.83
2023-08-13T17:36:15.997Z,43.13
2023-08-13T17:41:19.015Z,33.90
2023-08-13T17:46:23.409Z,47.25
2023-08-13T17:51:26.472Z,55.53
2023-08-13T17:56:29.574Z,54.63
2023-08-13T18:01:33.099Z,51.28
2023-08-13T18:06:38.305Z,37.08
2023-08-13T18:11:41.432Z,38.47
2023-08-13T18:16:44.510Z,34.60
2023-08-13T18:21:47.634Z,33.28
2023-08-13T18:26:51.460Z,29.52
2023-08-13T18:31:54.739Z,28.25
2023-08-13T18:36:57.821Z,29.30
2023-08-13T18:42:00.968Z,26.15
2023-08-13T18:47:04.096Z,21.65
2023-08-13T18:52:07.436Z,22.63
2023-08-13T18:57:11.051Z,19.38
2023-08-13T19:02:14.462Z,20.75
2023-08-13T19:07:18.930Z,16.65
2023-08-13T19:12:21.921Z,17.83
2023-08-13T19:17:28.098Z,16.88
2023-08-13T19:22:31.180Z,20.80
2023-08-13T19:27:34.214Z,17.77
2023-08-13T19:32:37.388Z,17.48
2023-08-13T19:37:40.467Z,19.77
2023-08-13T19:42:43.826Z,18.48
2023-08-13T19:47:46.962Z,15.23
2023-08-13T19:52:50.055Z,10.50
2023-08-13T19:57:53.092Z,11.77
2023-08-13T20:02:56.175Z,12.25
2023-08-13T20:07:59.330Z,16.50
2023-08-13T20:13:02.513Z,13.00
2023-08-13T20:18:05.725Z,17.13
2023-08-13T20:23:08.886Z,15.52
2023-08-13T20:28:12.011Z,14.27
2023-08-13T20:33:15.133Z,9.63
2023-08-13T20:38:18.290Z,15.82
2023-08-13T20:43:21.361Z,16.05
2023-08-13T20:48:24.439Z,16.50
2023-08-13T20:53:27.772Z,15.35
2023-08-13T20:58:33.250Z,13.00
2023-08-13T21:03:36.440Z,16.27
2023-08-13T21:08:39.488Z,13.30
2023-08-13T21:13:42.568Z,18.52
2023-08-13T21:18:45.901Z,18.45
2023-08-13T21:23:48.976Z,9.60
2023-08-13T21:28:52.227Z,14.05
2023-08-13T21:33:55.390Z,6.95
2023-08-13T21:38:59.694Z,10.48
2023-08-13T21:44:04.966Z,10.02
2023-08-13T21:49:08.007Z,11.57
2023-08-13T21:54:11.034Z,14.07
2023-08-13T21:59:14.055Z,13.77
2023-08-13T22:04:17.140Z,9.93
2023-08-13T22:09:20.226Z,13.68
2023-08-13T22:14:23.564Z,5.93
2023-08-13T22:19:45.045Z,8.43
2023-08-13T22:24:48.315Z,6.43
2023-08-13T22:29:51.495Z,8.75
2023-08-13T22:34:54.688Z,10.70
2023-08-13T22:39:57.783Z,9.38
2023-08-13T22:45:00.858Z,7.70
2023-08-13T22:50:04.368Z,6.07
2023-08-13T22:55:08.091Z,8.82
2023-08-13T23:00:11.937Z,12.75
2023-08-13T23:05:14.989Z,5.85
2023-08-13T23:10:18.070Z,11.70
2023-08-13T23:15:22.440Z,10.63
2023-08-13T23:20:25.572Z,7.97
2023-08-13T23:25:29.897Z,11.00
2023-08-13T23:30:33.962Z,8.38
2023-08-13T23:35:37.186Z,10.98
2023-08-13T23:40:40.282Z,9.77
2023-08-13T23:45:44.785Z,16.70
2023-08-13T23:50:55.581Z,11.98
2023-08-13T23:55:59.068Z,5.65
